createdAt,value
2023-05-09T00:01:41.676Z,98286.09
2023-05-09T00:04:08.306Z,98270.94
2023-05-09T00:06:35.135Z,98287.38
2023-05-09T00:09:01.648Z,98264.59
2023-05-09T00:11:28.230Z,98260.84
2023-05-09T00:13:54.717Z,98255.78
2023-05-09T00:16:24.122Z,98252.31
2023-05-09T00:18:50.938Z,98213.88
2023-05-09T00:21:17.546Z,98215.66
2023-05-09T00:23:46.272Z,98228.66
2023-05-09T00:26:12.823Z,98180.66
2023-05-09T00:28:39.400Z,98237.00
2023-05-09T00:31:06.137Z,98235.41
2023-05-09T00:33:32.767Z,98230.19
2023-05-09T00:35:59.373Z,98213.81
2023-05-09T00:38:26.050Z,98200.88
2023-05-09T00:40:52.580Z,98223.31
2023-05-09T00:43:19.109Z,98213.66
2023-05-09T00:45:48.332Z,98217.81
2023-05-09T00:48:18.647Z,98244.88
2023-05-09T00:50:48.163Z,98218.63
2023-05-09T00:53:14.956Z,98195.13
2023-05-09T00:55:41.673Z,98200.72
2023-05-09T00:58:08.292Z,98202.94
2023-05-09T01:00:34.881Z,98204.41
2023-05-09T01:03:01.557Z,98190.91
2023-05-09T01:05:51.053Z,98220.47
2023-05-09T01:08:35.047Z,98233.41
2023-05-09T01:11:10.792Z,98188.63
2023-05-09T01:14:06.223Z,98223.78
2023-05-09T01:16:50.031Z,98218.06
2023-05-09T01:19:51.666Z,98219.13
2023-05-09T01:22:24.045Z,98189.78
2023-05-09T01:25:21.017Z,98203.06
2023-05-09T01:28:00.816Z,98209.47
2023-05-09T01:30:29.482Z,98193.81
2023-05-09T01:33:00.815Z,98195.41
2023-05-09T01:35:31.160Z,98173.94
2023-05-09T01:37:59.438Z,98185.22
2023-05-09T01:40:30.761Z,98202.19
2023-05-09T01:43:01.966Z,98172.44
2023-05-09T01:45:30.059Z,98198.44
2023-05-09T01:47:58.677Z,98160.53
2023-05-09T01:50:27.036Z,98154.63
2023-05-09T01:52:57.105Z,98178.69
2023-05-09T01:55:28.440Z,98179.41
2023-05-09T01:57:56.715Z,98179.22
2023-05-09T02:00:25.097Z,98168.31
2023-05-09T02:02:56.205Z,98162.69
2023-05-09T02:05:27.374Z,98180.22
2023-05-09T02:07:57.371Z,98150.81
2023-05-09T02:10:25.653Z,98172.78
2023-05-09T02:12:56.305Z,98156.50
2023-05-09T02:15:24.604Z,98167.81
2023-05-09T02:17:55.581Z,98151.22
2023-05-09T02:20:25.259Z,98142.88
2023-05-09T02:22:55.386Z,98178.22
2023-05-09T02:25:26.048Z,98155.63
2023-05-09T02:27:58.004Z,98149.16
2023-05-09T02:30:26.491Z,98153.34
2023-05-09T02:33:08.598Z,98154.91
2023-05-09T02:35:36.030Z,98177.13
2023-05-09T02:38:03.336Z,98140.22
2023-05-09T02:40:30.834Z,98160.75
2023-05-09T02:42:57.541Z,98127.47
2023-05-09T02:45:27.121Z,98126.84
2023-05-09T02:47:56.695Z,98147.75
2023-05-09T02:50:26.977Z,98148.94
2023-05-09T02:52:56.624Z,98133.63
2023-05-09T02:55:26.803Z,98161.34
2023-05-09T02:58:09.223Z,98169.06
2023-05-09T03:00:38.991Z,98140.94
2023-05-09T03:03:05.727Z,98147.00
2023-05-09T03:05:32.446Z,98130.78
2023-05-09T03:07:58.990Z,98163.91
2023-05-09T03:10:28.714Z,98146.72
2023-05-09T03:12:58.056Z,98148.84
2023-05-09T03:15:27.558Z,98164.97
2023-05-09T03:17:56.588Z,98150.03
2023-05-09T03:20:23.304Z,98166.00
2023-05-09T03:22:49.866Z,98118.06
2023-05-09T03:25:17.037Z,98150.44
2023-05-09T03:27:43.749Z,98148.06
2023-05-09T03:30:10.797Z,98138.63
2023-05-09T03:32:37.476Z,98145.22
2023-05-09T03:35:04.336Z,98106.88
2023-05-09T03:37:30.853Z,98110.69
2023-05-09T03:40:00.575Z,98134.38
2023-05-09T03:42:29.918Z,98088.09
2023-05-09T03:45:02.325Z,98144.28
2023-05-09T03:47:28.872Z,98135.94
2023-05-09T03:49:57.680Z,98123.19
2023-05-09T03:52:24.195Z,98114.53
2023-05-09T03:54:50.786Z,98109.59
2023-05-09T03:57:17.427Z,98104.69
2023-05-09T03:59:44.011Z,98093.16
2023-05-09T04:02:11.089Z,98061.69
2023-05-09T04:04:37.752Z,98111.22
2023-05-09T04:07:04.343Z,98070.97
2023-05-09T04:09:30.952Z,98082.69
2023-05-09T04:12:00.702Z,98087.28
2023-05-09T04:14:29.351Z,98090.22
2023-05-09T04:16:55.927Z,98103.03
2023-05-09T04:19:22.448Z,98103.03
2023-05-09T04:21:48.951Z,98073.56
2023-05-09T04:24:15.560Z,98100.88
2023-05-09T04:26:42.129Z,98099.03
2023-05-09T04:29:08.787Z,98097.56
2023-05-09T04:31:36.049Z,98092.91
2023-05-09T04:34:03.195Z,98092.47
2023-05-09T04:36:33.852Z,98090.00
2023-05-09T04:39:05.151Z,98064.69
2023-05-09T04:41:31.914Z,98080.59
2023-05-09T04:44:00.577Z,98071.91
2023-05-09T04:46:27.152Z,98078.69
2023-05-09T04:48:53.763Z,98076.47
2023-05-09T04:51:20.483Z,98068.06
2023-05-09T04:53:47.116Z,98062.22
2023-05-09T04:56:13.610Z,98062.41
2023-05-09T04:58:40.470Z,98048.91
2023-05-09T05:01:06.967Z,98058.16
2023-05-09T05:03:33.643Z,98060.66
2023-05-09T05:06:02.508Z,98054.75
2023-05-09T05:08:29.178Z,98051.06
2023-05-09T05:10:55.852Z,98028.31
2023-05-09T05:13:22.599Z,98031.06
2023-05-09T05:15:49.799Z,98048.28
2023-05-09T05:18:16.355Z,98052.63
2023-05-09T05:20:43.068Z,98041.63
2023-05-09T05:23:10.305Z,98035.59
2023-05-09T05:25:36.944Z,98045.47
2023-05-09T05:28:06.681Z,98043.47
2023-05-09T05:30:34.924Z,97988.13
2023-05-09T05:33:04.039Z,98020.66
2023-05-09T05:35:30.614Z,98025.53
2023-05-09T05:37:57.213Z,98008.75
2023-05-09T05:40:23.743Z,98013.47
2023-05-09T05:42:50.192Z,98029.19
2023-05-09T05:45:17.111Z,98021.28
2023-05-09T05:47:43.792Z,98016.09
2023-05-09T05:50:12.003Z,97998.34
2023-05-09T05:52:39.963Z,98020.31
2023-05-09T05:55:06.690Z,98003.84
2023-05-09T05:57:35.697Z,98012.75
2023-05-09T06:00:04.807Z,98014.03
2023-05-09T06:02:31.423Z,97988.63
2023-05-09T06:04:58.020Z,97983.34
2023-05-09T06:07:24.555Z,97989.34
2023-05-09T06:09:51.051Z,97987.13
2023-05-09T06:12:17.756Z,97999.94
2023-05-09T06:14:44.251Z,97985.94
2023-05-09T06:17:11.008Z,97962.50
2023-05-09T06:19:37.720Z,97987.84
2023-05-09T06:22:07.505Z,97988.09
2023-05-09T06:24:36.871Z,97984.44
2023-05-09T06:27:05.589Z,97989.19
2023-05-09T06:29:32.160Z,97961.97
2023-05-09T06:31:58.680Z,97985.91
2023-05-09T06:34:25.218Z,97984.03
2023-05-09T06:36:51.739Z,97971.84
2023-05-09T06:39:18.269Z,97988.81
2023-05-09T06:41:44.721Z,97969.06
2023-05-09T06:44:11.237Z,97969.53
2023-05-09T06:46:37.859Z,97960.50
2023-05-09T06:49:07.490Z,97960.94
2023-05-09T06:51:37.179Z,97951.47
2023-05-09T06:54:06.821Z,97958.47
2023-05-09T06:56:36.596Z,97948.56
2023-05-09T06:59:05.420Z,97922.63
2023-05-09T07:01:32.016Z,97931.25
2023-05-09T07:03:59.633Z,97940.75
2023-05-09T07:06:26.274Z,97907.84
2023-05-09T07:08:52.748Z,97930.88
2023-05-09T07:11:21.385Z,97906.84
2023-05-09T07:13:47.954Z,97928.25
2023-05-09T07:16:14.563Z,97922.44
2023-05-09T07:18:41.085Z,97921.00
2023-05-09T07:21:07.728Z,97914.63
2023-05-09T07:23:37.311Z,97903.72
2023-05-09T07:26:06.817Z,97917.72
2023-05-09T07:28:34.529Z,97905.56
2023-05-09T07:31:00.966Z,97890.50
2023-05-09T07:33:28.177Z,97909.19
2023-05-09T07:35:54.874Z,97878.16
2023-05-09T07:38:21.389Z,97893.53
2023-05-09T07:40:47.934Z,97889.44
2023-05-09T07:43:14.445Z,97876.28
2023-05-09T07:45:40.989Z,97865.19
2023-05-09T07:48:07.788Z,97867.94
2023-05-09T07:50:37.398Z,97865.97
2023-05-09T07:53:06.927Z,97860.34
2023-05-09T07:55:36.834Z,97874.78
2023-05-09T07:58:04.720Z,97878.44
2023-05-09T08:00:31.258Z,97861.44
2023-05-09T08:02:57.853Z,97873.38
2023-05-09T08:05:24.490Z,97869.38
2023-05-09T08:07:50.999Z,97846.19
2023-05-09T08:10:17.627Z,97872.38
2023-05-09T08:12:44.213Z,97855.47
2023-05-09T08:15:13.465Z,97839.84
2023-05-09T08:17:40.256Z,97859.69
2023-05-09T08:20:08.349Z,97851.06
2023-05-09T08:22:39.722Z,97851.22
2023-05-09T08:25:10.399Z,97831.81
2023-05-09T08:27:36.904Z,97845.47
2023-05-09T08:30:06.948Z,97838.53
2023-05-09T08:32:34.976Z,97806.06
2023-05-09T08:35:01.791Z,97832.16
2023-05-09T08:37:28.939Z,97829.66
2023-05-09T08:39:55.489Z,97830.31
2023-05-09T08:42:26.129Z,97831.84
2023-05-09T08:44:53.111Z,97806.78
2023-05-09T08:47:21.204Z,97822.00
2023-05-09T08:49:49.475Z,97825.97
2023-05-09T08:52:22.397Z,97769.69
2023-05-09T08:54:49.031Z,97802.66
2023-05-09T08:57:15.808Z,97820.00
2023-05-09T08:59:42.552Z,97785.28
2023-05-09T09:02:14.639Z,97784.13
2023-05-09T09:04:41.732Z,97784.84
2023-05-09T09:07:09.872Z,97803.78
2023-05-09T09:09:44.312Z,97770.13
2023-05-09T09:12:12.324Z,97808.47
2023-05-09T09:14:45.498Z,97804.75
2023-05-09T09:17:18.682Z,97780.50
2023-05-09T09:19:52.662Z,97793.09
2023-05-09T09:22:22.772Z,97810.25
2023-05-09T09:24:50.521Z,97769.66
2023-05-09T09:27:17.152Z,97786.66
2023-05-09T09:29:44.616Z,97777.44
2023-05-09T09:32:15.650Z,97767.34
2023-05-09T09:34:42.262Z,97809.13
2023-05-09T09:37:08.928Z,97805.81
2023-05-09T09:39:38.686Z,97791.38
2023-05-09T09:42:12.138Z,97820.22
2023-05-09T09:44:38.742Z,97802.34
2023-05-09T09:47:10.097Z,97811.00
2023-05-09T09:49:36.663Z,97770.84
2023-05-09T09:52:05.217Z,97792.66
2023-05-09T09:54:41.457Z,97786.88
2023-05-09T09:57:09.358Z,97806.34
2023-05-09T09:59:36.377Z,97767.72
2023-05-09T10:02:08.356Z,97778.66
2023-05-09T10:04:41.640Z,97760.09
2023-05-09T10:07:13.525Z,97799.38
2023-05-09T10:09:42.556Z,97791.97
2023-05-09T10:12:09.477Z,97753.41
2023-05-09T10:14:38.436Z,97751.44
2023-05-09T10:17:05.994Z,97749.19
2023-05-09T10:19:35.381Z,97742.66
2023-05-09T10:22:11.098Z,97768.88
2023-05-09T10:24:48.158Z,97732.69
2023-05-09T10:27:19.708Z,97731.22
2023-05-09T10:30:11.594Z,97722.16
2023-05-09T10:32:56.905Z,97761.94
2023-05-09T10:35:30.259Z,97730.56
2023-05-09T10:37:58.023Z,97718.56
2023-05-09T10:40:32.173Z,97721.69
2023-05-09T10:42:59.289Z,97724.81
2023-05-09T10:45:26.489Z,97748.81
2023-05-09T10:47:56.663Z,97743.94
2023-05-09T10:50:24.147Z,97736.28
2023-05-09T10:53:39.312Z,97753.75
2023-05-09T10:56:09.555Z,97731.22
2023-05-09T10:58:40.748Z,97717.22
2023-05-09T11:01:10.863Z,97702.31
2023-05-09T11:03:55.505Z,97705.63
2023-05-09T11:06:55.070Z,97747.03
2023-05-09T11:09:29.618Z,97706.63
2023-05-09T11:12:04.284Z,97696.34
2023-05-09T11:17:41.049Z,97705.94
2023-05-09T11:20:10.944Z,97709.41
2023-05-09T11:22:49.817Z,97680.50
2023-05-09T11:32:22.789Z,97680.09
2023-05-09T11:35:12.214Z,97679.00
2023-05-09T11:38:14.992Z,97717.81
2023-05-09T11:43:36.914Z,97670.78
2023-05-09T11:52:04.044Z,97667.63
2023-05-09T11:54:58.341Z,97667.41
2023-05-09T12:08:13.923Z,97711.16
2023-05-09T12:10:49.028Z,97700.69
2023-05-09T12:13:21.413Z,97681.47
2023-05-09T12:19:38.440Z,97709.88
2023-05-09T12:25:30.709Z,97658.38
2023-05-09T12:28:49.941Z,97673.13
2023-05-09T12:31:54.264Z,97707.66
2023-05-09T12:34:28.036Z,97662.31
2023-05-09T12:37:01.743Z,97658.66
2023-05-09T12:39:45.609Z,97660.09
2023-05-09T12:42:34.579Z,97673.06
2023-05-09T12:45:08.210Z,97702.16
2023-05-09T12:47:35.039Z,97677.41
2023-05-09T12:50:08.562Z,97706.25
2023-05-09T12:53:02.517Z,97682.28
2023-05-09T13:05:13.673Z,97719.53
2023-05-09T13:08:34.039Z,97717.44
2023-05-09T13:31:01.414Z,97666.69
2023-05-09T13:33:28.166Z,97688.44
2023-05-09T13:35:56.977Z,97708.56
2023-05-09T13:38:23.774Z,97671.19
2023-05-09T13:40:50.590Z,97691.06
2023-05-09T13:43:17.332Z,97666.44
2023-05-09T13:45:49.304Z,97682.03
2023-05-09T13:48:16.071Z,97663.16
2023-05-09T13:50:48.263Z,97686.47
2023-05-09T13:53:14.893Z,97706.59
2023-05-09T13:55:45.655Z,97690.78
2023-05-09T13:58:15.596Z,97687.88
2023-05-09T14:00:45.561Z,97671.22
2023-05-09T14:03:15.190Z,97703.47
2023-05-09T14:05:44.599Z,97669.19
2023-05-09T14:08:14.160Z,97695.44
2023-05-09T14:10:44.664Z,97704.09
2023-05-09T14:13:15.599Z,97664.97
2023-05-09T14:15:42.834Z,97680.34
2023-05-09T14:18:19.987Z,97655.75
2023-05-09T14:20:47.795Z,97656.34
2023-05-09T14:23:14.837Z,97666.81
2023-05-09T14:25:42.472Z,97677.03
2023-05-09T14:28:11.633Z,97654.94
2023-05-09T14:30:38.831Z,97672.38
2023-05-09T14:33:05.719Z,97666.63
2023-05-09T14:35:34.506Z,97707.72
2023-05-09T14:38:01.671Z,97662.94
2023-05-09T14:40:34.908Z,97684.31
2023-05-09T14:43:04.804Z,97668.28
2023-05-09T14:45:33.079Z,97680.41
2023-05-09T14:48:00.575Z,97706.91
2023-05-09T14:50:27.251Z,97698.66
2023-05-09T14:52:53.823Z,97693.97
2023-05-09T14:55:23.043Z,97707.72
2023-05-09T14:57:49.998Z,97704.84
2023-05-09T15:00:21.922Z,97685.06
2023-05-09T15:02:49.637Z,97683.72
2023-05-09T15:05:16.767Z,97697.84
2023-05-09T15:07:43.412Z,97690.97
2023-05-09T15:10:12.759Z,97669.66
2023-05-09T15:12:43.806Z,97691.34
2023-05-09T15:15:18.038Z,97701.59
2023-05-09T15:17:45.330Z,97691.63
2023-05-09T15:20:15.736Z,97678.44
2023-05-09T15:22:47.245Z,97701.41
2023-05-09T15:25:13.898Z,97703.84
2023-05-09T15:27:46.598Z,97700.59
2023-05-09T15:30:14.195Z,97716.53
2023-05-09T15:32:45.410Z,97712.75
2023-05-09T15:35:15.852Z,97710.25
2023-05-09T15:37:45.564Z,97703.44
2023-05-09T15:40:15.379Z,97690.28
2023-05-09T15:42:48.191Z,97680.19
2023-05-09T15:45:15.745Z,97698.81
2023-05-09T15:47:42.840Z,97679.25
2023-05-09T15:50:12.602Z,97700.22
2023-05-09T15:52:43.758Z,97704.25
2023-05-09T15:55:13.685Z,97705.34
2023-05-09T15:57:40.337Z,97702.00
2023-05-09T16:00:07.286Z,97693.19
2023-05-09T16:02:34.052Z,97709.00
2023-05-09T16:05:00.630Z,97709.13
2023-05-09T16:07:27.235Z,97719.31
2023-05-09T16:09:53.771Z,97705.94
2023-05-09T16:12:20.281Z,97706.09
2023-05-09T16:14:46.778Z,97729.78
2023-05-09T16:17:13.368Z,97725.53
2023-05-09T16:19:41.442Z,97726.16
2023-05-09T16:22:33.170Z,97695.53
2023-05-09T16:24:59.820Z,97678.91
2023-05-09T16:27:37.345Z,97705.50
2023-05-09T16:30:06.417Z,97722.38
2023-05-09T16:32:33.001Z,97720.47
2023-05-09T16:34:59.611Z,97724.03
2023-05-09T16:37:28.790Z,97724.28
2023-05-09T16:39:56.548Z,97729.16
2023-05-09T16:42:23.245Z,97714.69
2023-05-09T16:44:49.849Z,97738.13
2023-05-09T16:47:16.407Z,97739.84
2023-05-09T16:49:46.045Z,97723.34
2023-05-09T16:52:13.725Z,97736.13
2023-05-09T16:54:40.402Z,97696.50
2023-05-09T16:57:08.542Z,97704.69
2023-05-09T16:59:35.114Z,97701.16
2023-05-09T17:02:02.216Z,97709.63
2023-05-09T17:04:29.487Z,97731.00
2023-05-09T17:06:56.077Z,97731.34
2023-05-09T17:09:22.766Z,97729.81
2023-05-09T17:11:49.377Z,97742.03
2023-05-09T17:14:16.348Z,97722.09
2023-05-09T17:16:44.496Z,97746.66
2023-05-09T17:19:17.044Z,97727.31
2023-05-09T17:21:46.816Z,97751.78
2023-05-09T17:24:17.628Z,97747.03
2023-05-09T17:26:44.978Z,97746.00
2023-05-09T17:29:13.651Z,97742.00
2023-05-09T17:31:44.201Z,97737.22
2023-05-09T17:34:14.088Z,97734.91
2023-05-09T17:36:40.642Z,97752.19
2023-05-09T17:39:07.250Z,97753.56
2023-05-09T17:41:36.557Z,97732.28
2023-05-09T17:44:04.021Z,97733.31
2023-05-09T17:46:35.973Z,97755.72
2023-05-09T17:49:02.762Z,97748.97
2023-05-09T17:51:29.643Z,97731.69
2023-05-09T17:53:56.285Z,97733.09
2023-05-09T17:56:33.212Z,97746.25
2023-05-09T17:59:00.300Z,97763.47
2023-05-09T18:01:31.332Z,97748.88
2023-05-09T18:03:58.157Z,97749.50
2023-05-09T18:06:29.414Z,97754.06
2023-05-09T18:09:07.404Z,97759.97
2023-05-09T18:11:35.366Z,97779.31
2023-05-09T18:14:03.208Z,97773.41
2023-05-09T18:16:29.982Z,97786.94
2023-05-09T18:18:56.671Z,97791.69
2023-05-09T18:21:51.989Z,97767.28
2023-05-09T18:24:21.673Z,97760.28
2023-05-09T18:26:49.107Z,97782.88
2023-05-09T18:29:17.146Z,97805.06
2023-05-09T18:31:46.776Z,97804.28
2023-05-09T18:34:25.068Z,97774.66
2023-05-09T18:36:52.532Z,97813.53
2023-05-09T18:39:19.527Z,97784.31
2023-05-09T18:42:06.946Z,97781.84
2023-05-09T18:44:33.573Z,97802.00
2023-05-09T18:47:00.172Z,97810.41
2023-05-09T18:49:26.867Z,97814.53
2023-05-09T18:51:53.756Z,97804.84
2023-05-09T18:54:20.745Z,97823.97
2023-05-09T18:56:47.568Z,97817.56
2023-05-09T18:59:16.320Z,97806.69
2023-05-09T19:01:46.212Z,97820.28
2023-05-09T19:04:31.949Z,97790.50
2023-05-09T19:07:00.736Z,97806.28
2023-05-09T19:09:31.065Z,97826.66
2023-05-09T19:12:04.621Z,97804.66
2023-05-09T19:14:31.400Z,97815.78
2023-05-09T19:17:00.165Z,97831.41
2023-05-09T19:19:27.546Z,97822.97
2023-05-09T19:21:56.272Z,97824.00
2023-05-09T19:24:25.245Z,97813.13
2023-05-09T19:26:53.265Z,97803.22
2023-05-09T19:29:20.272Z,97815.56
2023-05-09T19:31:48.406Z,97829.34
2023-05-09T19:34:22.782Z,97841.06
2023-05-09T19:36:51.822Z,97823.38
2023-05-09T19:39:19.640Z,97808.75
2023-05-09T19:41:49.138Z,97816.13
2023-05-09T19:44:20.564Z,97832.56
2023-05-09T19:46:49.346Z,97865.44
2023-05-09T19:49:20.176Z,97849.00
2023-05-09T19:51:53.191Z,97853.94
2023-05-09T19:54:20.317Z,97853.50
2023-05-09T19:56:52.982Z,97885.53
2023-05-09T19:59:34.731Z,97897.53
2023-05-09T20:02:21.741Z,97913.53
2023-05-09T20:04:54.525Z,97918.38
2023-05-09T20:15:49.192Z,97890.75
2023-05-09T20:18:19.371Z,97894.47
2023-05-09T20:35:20.047Z,97962.03
2023-05-09T20:37:52.041Z,97943.34
2023-05-09T20:40:21.227Z,97947.53
2023-05-09T20:42:49.301Z,97933.09
2023-05-09T20:45:22.212Z,97941.84
2023-05-09T20:47:51.152Z,97941.22
2023-05-09T20:50:18.389Z,97925.34
2023-05-09T20:52:48.936Z,97923.66
2023-05-09T20:55:19.935Z,97933.72
2023-05-09T20:57:49.963Z,97880.91
2023-05-09T21:00:18.480Z,97927.00
2023-05-09T21:02:47.938Z,97884.06
2023-05-09T21:05:14.551Z,97876.53
2023-05-09T21:07:41.128Z,97874.44
2023-05-09T21:10:10.339Z,97932.09
2023-05-09T21:12:39.462Z,97955.97
2023-05-09T21:20:15.663Z,98011.31
2023-05-09T21:22:42.429Z,97976.16
2023-05-09T21:25:09.504Z,97991.94
2023-05-09T21:27:36.164Z,97982.16
2023-05-09T21:30:02.859Z,97961.81
2023-05-09T21:32:30.518Z,97965.19
2023-05-09T21:34:57.787Z,97957.41
2023-05-09T21:37:27.309Z,97964.84
2023-05-09T22:01:29.418Z,97963.16
2023-05-09T22:03:56.327Z,97966.75
2023-05-09T22:06:22.930Z,97979.84
2023-05-09T22:08:51.181Z,97992.97
2023-05-09T22:11:18.087Z,97966.75
2023-05-09T22:13:44.587Z,97983.25
2023-05-09T22:16:11.082Z,97954.28
2023-05-09T22:18:37.557Z,97970.75
2023-05-09T22:21:08.900Z,97956.28
2023-05-09T22:23:35.628Z,97918.75
2023-05-09T22:26:02.168Z,97944.91
2023-05-09T22:28:37.714Z,97974.28
2023-05-09T22:31:07.696Z,97955.50
2023-05-09T22:33:34.469Z,97980.38
2023-05-09T22:36:01.152Z,97980.09
2023-05-09T22:38:27.703Z,97980.19
2023-05-09T22:40:54.158Z,97960.19
2023-05-09T22:43:24.187Z,97975.06
2023-05-09T22:45:54.749Z,97970.81
2023-05-09T22:48:24.978Z,97949.75
2023-05-09T22:51:01.432Z,97980.28
2023-05-09T22:53:28.654Z,97984.03
2023-05-09T22:55:55.841Z,97963.06
2023-05-09T22:58:26.548Z,97939.22
2023-05-09T23:00:56.565Z,97970.47
2023-05-09T23:03:26.295Z,97968.38
2023-05-09T23:05:54.375Z,97951.69
2023-05-09T23:08:23.320Z,97950.31
2023-05-09T23:10:49.885Z,97953.25
2023-05-09T23:13:16.441Z,97953.75
2023-05-09T23:15:43.021Z,97963.31
2023-05-09T23:18:09.651Z,97980.81
2023-05-09T23:20:36.987Z,97983.91
2023-05-09T23:23:03.696Z,97957.47
2023-05-09T23:25:30.307Z,97953.81
2023-05-09T23:27:56.804Z,97966.97
2023-05-09T23:30:26.381Z,97968.50
2023-05-09T23:32:54.966Z,97966.56
2023-05-09T23:35:22.261Z,97971.59
2023-05-09T23:37:48.764Z,97952.63
2023-05-09T23:40:15.581Z,97981.84
2023-05-09T23:42:42.378Z,97980.06
2023-05-09T23:45:10.095Z,97962.72
2023-05-09T23:47:36.631Z,97964.78
2023-05-09T23:50:03.298Z,97978.19
2023-05-09T23:52:29.800Z,97954.59
2023-05-09T23:54:59.220Z,97991.75
2023-05-09T23:57:28.763Z,97957.38
2023-05-09T23:59:56.411Z,97971.22
